Time;durP1;ratioP1;P1;durP2;ratioP2;P2;SDS_P1;SDS_P2;PMS_P1;PMS_P2;Temp;Humidity;BMP_temperature;BMP_pressure;BME280_temperature;BME280_humidity;BME280_pressure;Samples;Min_cycle;Max_cycle;Signal;HPM_P1;HPM_P2
2023/06/30 00:02:23;;;;;;;;;;;20.60;99.90;;;;;;5046181;28;19984;-68
2023/06/30 00:04:51;;;;;;;;;;;20.60;99.90;;;;;;5046089;28;19980;-67
2023/06/30 00:07:20;;;;;;;;;;;20.50;99.90;;;;;;5045106;28;19921;-68
2023/06/30 00:09:47;;;;;;;;;;;20.50;99.90;;;;;;5050078;28;19967;-68
2023/06/30 00:12:14;;;;;;;;;;;20.40;99.90;;;;;;5065761;28;19921;-68
2023/06/30 00:14:42;;;;;;;;;;;20.40;99.90;;;;;;5065791;28;19976;-67
2023/06/30 00:17:08;;;;;;;;;;;20.30;99.90;;;;;;5065084;28;19927;-68
2023/06/30 00:19:35;;;;;;;;;;;20.30;99.90;;;;;;5065815;28;20130;-68
2023/06/30 00:22:02;;;;;;;;;;;20.20;99.90;;;;;;5065906;28;19975;-68
2023/06/30 00:24:28;;;;;;;;;;;20.10;99.90;;;;;;5063842;28;19983;-68
2023/06/30 00:26:55;;;;;;;;;;;20.10;99.90;;;;;;5064362;28;19991;-68
2023/06/30 00:29:23;;;;;;;;;;;20.00;99.90;;;;;;5063138;28;19984;-68
2023/06/30 00:31:51;;;;;;;;;;;20.00;99.90;;;;;;5065013;28;19959;-70
2023/06/30 00:34:17;;;;;;;;;;;20.00;99.90;;;;;;5062915;28;19921;-68
2023/06/30 00:36:44;;;;;;;;;;;20.00;99.90;;;;;;5064908;28;19987;-68
2023/06/30 00:39:11;;;;;;;;;;;20.00;99.90;;;;;;5065156;28;20279;-68
2023/06/30 00:41:37;;;;;;;;;;;20.00;99.90;;;;;;5065423;28;19921;-68
2023/06/30 00:44:04;;;;;;;;;;;20.00;99.90;;;;;;5065321;28;19987;-68
2023/06/30 00:46:31;;;;;;;;;;;20.00;99.90;;;;;;5064538;28;20179;-68
2023/06/30 00:48:59;;;;;;;;;;;20.00;99.90;;;;;;5059759;28;19989;-69
2023/06/30 00:51:26;;;;;;;;;;;20.00;99.90;;;;;;5045095;28;20255;-68
2023/06/30 00:53:52;;;;;;;;;;;19.90;99.90;;;;;;5045466;28;19928;-68
2023/06/30 00:56:19;;;;;;;;;;;19.90;99.90;;;;;;5044200;28;19921;-68
2023/06/30 00:58:46;;;;;;;;;;;19.90;99.90;;;;;;5044941;28;19921;-68
2023/06/30 01:01:16;;;;;;;;;;;19.70;99.90;;;;;;5045239;28;19959;-68
2023/06/30 01:03:44;;;;;;;;;;;19.80;99.90;;;;;;5045229;28;19921;-68
2023/06/30 01:06:15;;;;;;;;;;;19.80;99.90;;;;;;5044200;28;19923;-68
2023/06/30 01:08:44;;;;;;;;;;;19.70;99.90;;;;;;5047624;28;20055;-68
2023/06/30 01:11:11;;;;;;;;;;;19.70;99.90;;;;;;5052000;28;19922;-67
2023/06/30 01:13:38;;;;;;;;;;;19.70;99.90;;;;;;5045906;28;19921;-68
2023/06/30 01:16:09;;;;;;;;;;;19.60;99.90;;;;;;5063681;28;19927;-68
2023/06/30 01:18:37;;;;;;;;;;;19.60;99.90;;;;;;5064027;28;19928;-68
2023/06/30 01:21:04;;;;;;;;;;;19.60;99.90;;;;;;5064884;28;19927;-68
2023/06/30 01:23:35;;;;;;;;;;;19.60;99.90;;;;;;5064946;28;19921;-67
2023/06/30 01:26:02;;;;;;;;;;;19.70;99.90;;;;;;5063775;28;20007;-68
2023/06/30 01:28:29;;;;;;;;;;;19.60;99.90;;;;;;5053315;28;20312;-70
2023/06/30 01:30:56;;;;;;;;;;;19.60;99.90;;;;;;5063606;28;19967;-68
2023/06/30 01:33:23;;;;;;;;;;;19.50;99.90;;;;;;5063664;28;19920;-68
2023/06/30 01:35:50;;;;;;;;;;;19.50;99.90;;;;;;5062808;28;19943;-68
2023/06/30 01:38:16;;;;;;;;;;;19.40;99.90;;;;;;5064421;28;20083;-69
2023/06/30 01:40:46;;;;;;;;;;;19.40;99.90;;;;;;5063671;28;20281;-68
2023/06/30 01:43:14;;;;;;;;;;;19.40;99.90;;;;;;5063225;28;20093;-68
2023/06/30 01:45:41;;;;;;;;;;;19.40;99.90;;;;;;5063300;28;19920;-68
2023/06/30 01:48:08;;;;;;;;;;;19.30;99.90;;;;;;5064281;28;19959;-67
2023/06/30 01:50:35;;;;;;;;;;;19.30;99.90;;;;;;5064102;28;20251;-68
2023/06/30 01:53:02;;;;;;;;;;;19.30;99.90;;;;;;5064148;28;19927;-68
2023/06/30 01:55:28;;;;;;;;;;;19.30;99.90;;;;;;5063506;28;19991;-68
2023/06/30 01:57:56;;;;;;;;;;;19.20;99.90;;;;;;5064005;28;20213;-68
2023/06/30 02:00:23;;;;;;;;;;;19.20;99.90;;;;;;5064252;28;19927;-68
2023/06/30 02:02:50;;;;;;;;;;;19.10;99.90;;;;;;5064225;28;19984;-68
2023/06/30 02:05:16;;;;;;;;;;;19.10;99.90;;;;;;5063618;28;20717;-68
2023/06/30 02:07:43;;;;;;;;;;;19.10;99.90;;;;;;5064065;28;19927;-68
2023/06/30 02:10:10;;;;;;;;;;;19.10;99.90;;;;;;5064256;28;19984;-66
2023/06/30 02:12:36;;;;;;;;;;;19.10;99.90;;;;;;5063801;28;19988;-68
2023/06/30 02:15:05;;;;;;;;;;;19.10;99.90;;;;;;5063566;28;19921;-68
2023/06/30 02:17:32;;;;;;;;;;;19.10;99.90;;;;;;5063565;28;19983;-68
2023/06/30 02:19:59;;;;;;;;;;;19.10;99.90;;;;;;5063991;28;19988;-68
2023/06/30 02:22:26;;;;;;;;;;;19.10;99.90;;;;;;5064014;28;19921;-68
2023/06/30 02:24:53;;;;;;;;;;;19.10;99.90;;;;;;5063509;28;20089;-68
2023/06/30 02:27:20;;;;;;;;;;;19.10;99.90;;;;;;5063038;28;19921;-69
2023/06/30 02:29:47;;;;;;;;;;;19.00;99.90;;;;;;5060823;28;20263;-69
2023/06/30 02:32:15;;;;;;;;;;;19.00;99.90;;;;;;5063628;28;20141;-68
2023/06/30 02:34:41;;;;;;;;;;;19.00;99.90;;;;;;5063447;28;19921;-68
2023/06/30 02:37:08;;;;;;;;;;;18.90;99.90;;;;;;5063003;28;19988;-68
2023/06/30 02:39:35;;;;;;;;;;;18.90;99.90;;;;;;5063222;28;19987;-68
2023/06/30 02:42:02;;;;;;;;;;;18.90;99.90;;;;;;5063592;28;19920;-68
2023/06/30 02:44:29;;;;;;;;;;;18.90;99.90;;;;;;5063078;28;20216;-67
2023/06/30 02:46:55;;;;;;;;;;;18.80;99.90;;;;;;5062444;28;19951;-68
2023/06/30 02:49:24;;;;;;;;;;;18.90;99.90;;;;;;5063546;28;19943;-68
2023/06/30 02:51:50;;;;;;;;;;;18.80;99.90;;;;;;5063580;28;19983;-68
2023/06/30 02:54:17;;;;;;;;;;;18.70;99.90;;;;;;5064048;28;20181;-68
2023/06/30 02:56:44;;;;;;;;;;;18.70;99.90;;;;;;5066355;28;20197;-68
2023/06/30 02:59:10;;;;;;;;;;;18.70;99.90;;;;;;5067205;28;19970;-68
2023/06/30 03:01:37;;;;;;;;;;;18.70;99.90;;;;;;5067639;28;19984;-68
2023/06/30 03:04:04;;;;;;;;;;;18.70;99.90;;;;;;5066968;28;20175;-68
2023/06/30 03:06:32;;;;;;;;;;;18.70;99.90;;;;;;5066334;28;19983;-68
2023/06/30 03:08:59;;;;;;;;;;;18.60;99.90;;;;;;5067191;28;20173;-68
2023/06/30 03:11:26;;;;;;;;;;;18.60;99.90;;;;;;5067292;28;19992;-68
2023/06/30 03:13:53;;;;;;;;;;;18.50;99.90;;;;;;5067217;28;20243;-70
2023/06/30 03:16:19;;;;;;;;;;;18.50;99.90;;;;;;5066538;28;19963;-68
2023/06/30 03:18:46;;;;;;;;;;;18.40;99.90;;;;;;5067004;28;19920;-68
2023/06/30 03:21:12;;;;;;;;;;;18.30;99.90;;;;;;5066953;28;19944;-68
2023/06/30 03:23:41;;;;;;;;;;;18.30;99.90;;;;;;5067249;28;19921;-68
2023/06/30 03:26:08;;;;;;;;;;;18.30;99.90;;;;;;5066140;28;20137;-68
2023/06/30 03:28:40;;;;;;;;;;;18.30;99.90;;;;;;5064518;28;19983;-67
2023/06/30 03:31:07;;;;;;;;;;;18.30;99.90;;;;;;5052075;28;19987;-68
2023/06/30 03:33:33;;;;;;;;;;;18.20;99.90;;;;;;5086907;28;20003;-67
2023/06/30 03:36:00;;;;;;;;;;;18.20;99.90;;;;;;5086105;28;19979;-68
2023/06/30 03:38:27;;;;;;;;;;;18.20;99.90;;;;;;5086696;28;19920;-68
2023/06/30 03:40:55;;;;;;;;;;;18.20;99.90;;;;;;5086749;28;19999;-68
2023/06/30 03:43:23;;;;;;;;;;;18.20;99.90;;;;;;5086876;28;19927;-68
2023/06/30 03:45:50;;;;;;;;;;;18.10;99.90;;;;;;5085502;28;19924;-68
2023/06/30 03:48:17;;;;;;;;;;;18.20;99.90;;;;;;5086496;28;19966;-68
2023/06/30 03:50:43;;;;;;;;;;;18.20;99.90;;;;;;5086725;28;20153;-70
2023/06/30 03:53:10;;;;;;;;;;;18.20;99.90;;;;;;5086575;28;19966;-68
2023/06/30 03:55:37;;;;;;;;;;;18.20;99.90;;;;;;5085713;28;19984;-68
2023/06/30 03:58:05;;;;;;;;;;;18.10;99.90;;;;;;5086547;28;20036;-68
2023/06/30 04:00:32;;;;;;;;;;;18.10;99.90;;;;;;5086417;28;19943;-68
2023/06/30 04:02:58;;;;;;;;;;;18.10;99.90;;;;;;5085075;28;19928;-68
2023/06/30 04:05:25;;;;;;;;;;;18.00;99.90;;;;;;5065118;28;19929;-67
2023/06/30 04:07:52;;;;;;;;;;;18.00;99.90;;;;;;5065804;28;19967;-68
2023/06/30 04:10:18;;;;;;;;;;;18.00;99.90;;;;;;5066299;28;19988;-69
2023/06/30 04:12:45;;;;;;;;;;;18.00;99.90;;;;;;5066239;28;19927;-68
2023/06/30 04:15:13;;;;;;;;;;;18.00;99.90;;;;;;5065346;28;19984;-68
2023/06/30 04:17:39;;;;;;;;;;;18.00;99.90;;;;;;5066010;28;20219;-67
2023/06/30 04:20:09;;;;;;;;;;;18.10;99.90;;;;;;5065739;28;19996;-68
2023/06/30 04:22:36;;;;;;;;;;;18.10;99.90;;;;;;5066167;28;19952;-69
2023/06/30 04:25:03;;;;;;;;;;;18.10;99.90;;;;;;5065597;28;19927;-68
2023/06/30 04:27:29;;;;;;;;;;;18.10;99.90;;;;;;5065509;28;19921;-68
2023/06/30 04:29:56;;;;;;;;;;;18.10;99.90;;;;;;5062619;28;19921;-68
2023/06/30 04:32:24;;;;;;;;;;;18.10;99.90;;;;;;5065871;28;19979;-68
2023/06/30 04:34:51;;;;;;;;;;;18.10;99.90;;;;;;5065477;28;19925;-68
2023/06/30 04:37:17;;;;;;;;;;;18.20;99.90;;;;;;5064922;28;19984;-68
2023/06/30 04:39:46;;;;;;;;;;;18.20;99.90;;;;;;5065607;28;20177;-68
2023/06/30 04:42:13;;;;;;;;;;;18.10;99.90;;;;;;5065758;28;20003;-67
2023/06/30 04:44:39;;;;;;;;;;;18.10;99.90;;;;;;5065174;28;19927;-68
2023/06/30 04:47:06;;;;;;;;;;;18.10;99.90;;;;;;5064275;28;20277;-70
2023/06/30 04:49:34;;;;;;;;;;;18.10;99.90;;;;;;5065044;28;19991;-68
2023/06/30 04:52:00;;;;;;;;;;;18.10;99.90;;;;;;5065248;28;19921;-68
2023/06/30 04:54:27;;;;;;;;;;;18.20;99.90;;;;;;5064763;28;19952;-68
2023/06/30 04:56:56;;;;;;;;;;;18.20;99.90;;;;;;5064209;28;19956;-68
2023/06/30 04:59:23;;;;;;;;;;;18.20;99.90;;;;;;5064800;28;20274;-68
2023/06/30 05:01:50;;;;;;;;;;;18.20;99.90;;;;;;5065213;28;19953;-69
2023/06/30 05:04:17;;;;;;;;;;;18.20;99.90;;;;;;5065007;28;19920;-69
2023/06/30 05:06:45;;;;;;;;;;;18.30;99.90;;;;;;5064168;28;19955;-68
2023/06/30 05:09:12;;;;;;;;;;;18.30;99.90;;;;;;5064999;28;20131;-68
2023/06/30 05:11:38;;;;;;;;;;;18.30;99.90;;;;;;5064719;28;19992;-68
2023/06/30 05:14:05;;;;;;;;;;;18.30;99.90;;;;;;5064768;28;19921;-69
2023/06/30 05:16:32;;;;;;;;;;;18.30;99.90;;;;;;5063692;28;19928;-68
2023/06/30 05:18:58;;;;;;;;;;;18.40;99.90;;;;;;5064223;28;19991;-68
2023/06/30 05:21:25;;;;;;;;;;;18.30;99.90;;;;;;5064579;28;19988;-69
2023/06/30 05:23:53;;;;;;;;;;;18.30;99.90;;;;;;5064558;28;20091;-68
2023/06/30 05:26:20;;;;;;;;;;;18.40;99.90;;;;;;5063417;28;20204;-69
2023/06/30 05:28:48;;;;;;;;;;;18.40;99.90;;;;;;5061720;28;19967;-69
2023/06/30 05:31:15;;;;;;;;;;;18.50;99.90;;;;;;5064534;28;19921;-69
2023/06/30 05:33:42;;;;;;;;;;;18.50;99.90;;;;;;5064292;28;19952;-65
2023/06/30 05:36:08;;;;;;;;;;;18.50;99.90;;;;;;5063199;28;19956;-66
2023/06/30 05:38:35;;;;;;;;;;;18.50;99.90;;;;;;5064271;28;19928;-66
2023/06/30 05:41:03;;;;;;;;;;;18.60;99.90;;;;;;5064256;28;19988;-65
2023/06/30 05:43:29;;;;;;;;;;;18.60;99.90;;;;;;5063341;28;19988;-66
2023/06/30 05:45:56;;;;;;;;;;;18.70;99.90;;;;;;5063084;28;19927;-66
2023/06/30 05:48:23;;;;;;;;;;;18.70;99.90;;;;;;5050082;28;19984;-66
2023/06/30 05:50:49;;;;;;;;;;;18.80;99.90;;;;;;5060061;28;19959;-67
2023/06/30 05:53:17;;;;;;;;;;;18.90;99.90;;;;;;5061413;28;19921;-66
2023/06/30 05:55:43;;;;;;;;;;;19.00;99.90;;;;;;5063329;28;19988;-67
2023/06/30 05:58:11;;;;;;;;;;;19.00;99.90;;;;;;5063906;28;19992;-67
2023/06/30 06:00:38;;;;;;;;;;;19.10;99.90;;;;;;5063545;28;20339;-66
2023/06/30 06:03:05;;;;;;;;;;;19.20;99.90;;;;;;5063508;28;19996;-66
2023/06/30 06:05:31;;;;;;;;;;;19.20;99.90;;;;;;5061561;28;19980;-67
2023/06/30 06:07:58;;;;;;;;;;;19.40;99.90;;;;;;5063515;28;20197;-66
2023/06/30 06:10:24;;;;;;;;;;;19.40;99.90;;;;;;5063694;28;19980;-66
2023/06/30 06:12:52;;;;;;;;;;;19.40;99.90;;;;;;5063868;28;19980;-66
2023/06/30 06:15:20;;;;;;;;;;;19.50;99.90;;;;;;5063052;28;19921;-66
2023/06/30 06:17:46;;;;;;;;;;;19.60;99.90;;;;;;5063690;28;19920;-66
2023/06/30 06:20:13;;;;;;;;;;;19.70;99.90;;;;;;5063433;28;19927;-66
2023/06/30 06:22:40;;;;;;;;;;;19.70;99.90;;;;;;5063723;28;19988;-67
2023/06/30 06:25:07;;;;;;;;;;;19.80;99.90;;;;;;5063155;28;19971;-66
2023/06/30 06:27:34;;;;;;;;;;;19.90;99.90;;;;;;5063024;28;19920;-66
2023/06/30 06:30:01;;;;;;;;;;;20.00;99.90;;;;;;5060140;28;19943;-66
2023/06/30 06:32:29;;;;;;;;;;;20.00;99.90;;;;;;5063638;28;20110;-66
2023/06/30 06:34:56;;;;;;;;;;;20.20;99.90;;;;;;5063145;28;19983;-67
2023/06/30 06:37:23;;;;;;;;;;;20.40;99.90;;;;;;5062536;28;20231;-66
2023/06/30 06:39:49;;;;;;;;;;;20.40;99.90;;;;;;5063133;28;19928;-66
2023/06/30 06:42:16;;;;;;;;;;;20.50;99.90;;;;;;5063465;28;19992;-66
2023/06/30 06:44:42;;;;;;;;;;;20.70;99.90;;;;;;5063051;28;20383;-66
2023/06/30 06:47:28;;;;;;;;;;;20.80;99.90;;;;;;5062066;28;19928;-66
2023/06/30 06:49:56;;;;;;;;;;;20.90;99.90;;;;;;5062855;28;20159;-66
2023/06/30 06:52:23;;;;;;;;;;;21.00;99.90;;;;;;5060451;28;19931;-66
2023/06/30 06:54:50;;;;;;;;;;;21.20;99.90;;;;;;5063244;28;19956;-66
2023/06/30 06:57:16;;;;;;;;;;;21.30;99.90;;;;;;5062624;28;19956;-66
2023/06/30 06:59:43;;;;;;;;;;;21.40;99.90;;;;;;5063002;28;19920;-66
2023/06/30 07:02:10;;;;;;;;;;;21.60;99.90;;;;;;5063241;28;19921;-66
2023/06/30 07:04:37;;;;;;;;;;;21.70;99.90;;;;;;5063253;28;20116;-66
2023/06/30 07:07:05;;;;;;;;;;;21.90;99.90;;;;;;5062056;28;20231;-66
2023/06/30 07:09:32;;;;;;;;;;;22.00;99.90;;;;;;5063373;28;20086;-66
2023/06/30 07:11:58;;;;;;;;;;;22.10;99.90;;;;;;5063049;28;19989;-66
2023/06/30 07:14:25;;;;;;;;;;;22.10;99.90;;;;;;5062868;28;19992;-66
2023/06/30 07:16:51;;;;;;;;;;;22.10;99.90;;;;;;5059511;28;19988;-66
2023/06/30 07:19:18;;;;;;;;;;;22.20;99.90;;;;;;5042800;28;19932;-66
2023/06/30 07:21:45;;;;;;;;;;;22.20;99.90;;;;;;5042972;28;19956;-66
2023/06/30 07:24:13;;;;;;;;;;;22.30;99.90;;;;;;5043025;28;19948;-66
2023/06/30 07:26:39;;;;;;;;;;;22.40;99.90;;;;;;5042215;28;20112;-67
2023/06/30 07:29:07;;;;;;;;;;;22.40;99.90;;;;;;5039472;28;19967;-67
2023/06/30 07:31:34;;;;;;;;;;;22.50;99.90;;;;;;5043034;28;19984;-66
2023/06/30 07:34:00;;;;;;;;;;;22.60;99.90;;;;;;5042937;28;19925;-66
2023/06/30 07:36:27;;;;;;;;;;;22.70;99.90;;;;;;5044055;28;19921;-67
2023/06/30 07:38:53;;;;;;;;;;;22.70;99.90;;;;;;5043190;28;19980;-66
2023/06/30 07:41:21;;;;;;;;;;;22.80;99.90;;;;;;5043731;28;19921;-67
2023/06/30 07:43:48;;;;;;;;;;;22.80;99.90;;;;;;5046942;28;19963;-67
2023/06/30 07:46:15;;;;;;;;;;;22.90;99.90;;;;;;5045696;28;19965;-67
2023/06/30 07:48:41;;;;;;;;;;;23.00;99.90;;;;;;5060958;28;19929;-66
2023/06/30 07:51:08;;;;;;;;;;;23.00;99.90;;;;;;5066509;28;19959;-67
2023/06/30 07:53:38;;;;;;;;;;;23.10;99.90;;;;;;5062856;28;20126;-67
2023/06/30 07:56:05;;;;;;;;;;;23.10;99.90;;;;;;5065027;28;19943;-67
2023/06/30 07:58:33;;;;;;;;;;;23.20;99.90;;;;;;5066191;28;19983;-66
2023/06/30 08:00:59;;;;;;;;;;;23.30;99.90;;;;;;5066095;28;19991;-66
2023/06/30 08:03:26;;;;;;;;;;;23.50;99.90;;;;;;5065599;28;19956;-66
2023/06/30 08:05:53;;;;;;;;;;;23.50;99.90;;;;;;5063192;28;20256;-66
2023/06/30 08:08:20;;;;;;;;;;;23.60;99.90;;;;;;5065344;28;19921;-67
2023/06/30 08:10:46;;;;;;;;;;;23.60;99.90;;;;;;5060119;28;19952;-66
2023/06/30 08:13:13;;;;;;;;;;;23.70;99.90;;;;;;5064644;28;19951;-67
2023/06/30 08:15:41;;;;;;;;;;;23.80;99.90;;;;;;5063761;28;19979;-66
2023/06/30 08:18:07;;;;;;;;;;;23.90;99.90;;;;;;5065267;28;19935;-66
2023/06/30 08:20:35;;;;;;;;;;;24.00;99.90;;;;;;5065734;28;19991;-66
2023/06/30 08:23:02;;;;;;;;;;;24.10;99.90;;;;;;5065391;28;19942;-67
2023/06/30 08:25:29;;;;;;;;;;;24.10;99.90;;;;;;5062158;28;20132;-66
2023/06/30 08:27:55;;;;;;;;;;;24.20;99.90;;;;;;5065629;28;19921;-66
2023/06/30 08:30:24;;;;;;;;;;;24.30;99.90;;;;;;5062900;28;19921;-66
2023/06/30 08:32:54;;;;;;;;;;;24.40;99.90;;;;;;5065130;28;19956;-66
2023/06/30 08:35:20;;;;;;;;;;;24.50;99.90;;;;;;5064253;28;20014;-68
2023/06/30 08:37:47;;;;;;;;;;;24.50;99.90;;;;;;5058376;28;19991;-66
2023/06/30 08:40:14;;;;;;;;;;;24.50;99.90;;;;;;5065186;28;19978;-67
2023/06/30 08:42:44;;;;;;;;;;;24.50;99.90;;;;;;5078199;28;19927;-66
2023/06/30 08:45:13;;;;;;;;;;;24.40;99.90;;;;;;5064462;28;19988;-66
2023/06/30 08:47:40;;;;;;;;;;;24.40;99.90;;;;;;5063785;28;20223;-66
2023/06/30 08:50:09;;;;;;;;;;;24.30;99.90;;;;;;5064450;28;19984;-68
2023/06/30 08:52:36;;;;;;;;;;;24.30;99.90;;;;;;5064295;28;20205;-66
2023/06/30 08:55:03;;;;;;;;;;;24.20;99.90;;;;;;5063514;28;19980;-66
2023/06/30 08:57:30;;;;;;;;;;;24.20;99.90;;;;;;5062426;28;19927;-66
2023/06/30 08:59:57;;;;;;;;;;;24.20;99.90;;;;;;5063068;28;19920;-67
2023/06/30 09:02:23;;;;;;;;;;;24.20;99.90;;;;;;5065040;28;19988;-67
2023/06/30 09:04:50;;;;;;;;;;;24.20;99.90;;;;;;5059375;28;19988;-67
2023/06/30 09:07:21;;;;;;;;;;;24.30;99.90;;;;;;5064319;28;19921;-66
2023/06/30 09:09:49;;;;;;;;;;;24.20;99.90;;;;;;5064801;28;19921;-66
2023/06/30 09:12:15;;;;;;;;;;;24.30;99.90;;;;;;5064539;28;20121;-66
2023/06/30 09:14:45;;;;;;;;;;;24.30;99.90;;;;;;5064702;28;19948;-66
2023/06/30 09:17:12;;;;;;;;;;;24.30;99.90;;;;;;5064139;28;20119;-66
2023/06/30 09:19:39;;;;;;;;;;;24.40;99.90;;;;;;5064547;28;19983;-65
2023/06/30 09:22:06;;;;;;;;;;;24.40;99.90;;;;;;5048939;28;20256;-66
2023/06/30 09:24:34;;;;;;;;;;;24.40;99.90;;;;;;5044536;28;19920;-66
2023/06/30 09:27:00;;;;;;;;;;;24.50;99.90;;;;;;5043489;28;19959;-66
2023/06/30 09:29:31;;;;;;;;;;;24.50;99.90;;;;;;5046587;28;19988;-66
2023/06/30 09:32:00;;;;;;;;;;;24.40;99.90;;;;;;5064637;28;19991;-66
2023/06/30 09:34:27;;;;;;;;;;;24.30;99.90;;;;;;5064583;28;19996;-67
2023/06/30 09:36:55;;;;;;;;;;;24.30;99.90;;;;;;5062869;28;19927;-66
2023/06/30 09:39:22;;;;;;;;;;;24.30;99.90;;;;;;5058157;28;20216;-66
2023/06/30 09:41:50;;;;;;;;;;;24.30;99.90;;;;;;5064200;28;19995;-66
2023/06/30 09:44:20;;;;;;;;;;;24.20;99.90;;;;;;5063975;28;20236;-66
2023/06/30 09:46:47;;;;;;;;;;;24.10;99.90;;;;;;5063322;28;20149;-68
2023/06/30 09:49:24;;;;;;;;;;;24.00;99.90;;;;;;5064225;28;20251;-67
2023/06/30 09:51:50;;;;;;;;;;;23.80;99.90;;;;;;5062753;28;19943;-66
2023/06/30 09:54:17;;;;;;;;;;;23.80;99.90;;;;;;5062727;28;20260;-67
2023/06/30 09:56:45;;;;;;;;;;;23.70;99.90;;;;;;5062721;28;19925;-67
2023/06/30 09:59:14;;;;;;;;;;;23.70;99.90;;;;;;5063987;28;19920;-66
2023/06/30 10:01:41;;;;;;;;;;;23.70;99.90;;;;;;5063713;28;19921;-66
2023/06/30 10:04:07;;;;;;;;;;;23.60;99.90;;;;;;5062971;28;19992;-66
2023/06/30 10:06:34;;;;;;;;;;;23.60;99.90;;;;;;5062928;28;19952;-68
2023/06/30 10:09:02;;;;;;;;;;;23.60;99.90;;;;;;5063878;28;19927;-68
2023/06/30 10:11:30;;;;;;;;;;;23.60;99.90;;;;;;5060719;28;20213;-68
2023/06/30 10:13:59;;;;;;;;;;;23.70;99.90;;;;;;5063420;28;19920;-68
2023/06/30 10:16:28;;;;;;;;;;;23.80;99.90;;;;;;5062831;28;19952;-68
2023/06/30 10:18:56;;;;;;;;;;;23.90;99.90;;;;;;5063378;28;19984;-68
2023/06/30 10:21:22;;;;;;;;;;;24.00;99.90;;;;;;5063575;28;19987;-68
2023/06/30 10:23:50;;;;;;;;;;;24.00;99.90;;;;;;5063387;28;20264;-68
2023/06/30 10:26:18;;;;;;;;;;;24.20;99.90;;;;;;5060407;28;19948;-69
2023/06/30 10:28:47;;;;;;;;;;;24.30;99.90;;;;;;5059857;28;19921;-69
2023/06/30 10:31:14;;;;;;;;;;;24.50;99.90;;;;;;5062602;28;19920;-68
2023/06/30 10:33:42;;;;;;;;;;;24.60;99.90;;;;;;5063276;28;20246;-68
2023/06/30 10:36:09;;;;;;;;;;;24.50;99.90;;;;;;5044619;28;19921;-69
2023/06/30 10:38:37;;;;;;;;;;;24.50;99.90;;;;;;5050744;28;19952;-68
2023/06/30 10:41:14;;;;;;;;;;;24.50;99.90;;;;;;5043301;28;19921;-68
2023/06/30 10:43:58;;;;;;;;;;;24.40;99.90;;;;;;5055369;28;19920;-68
2023/06/30 10:46:40;;;;;;;;;;;24.40;99.90;;;;;;5050485;28;19935;-68
2023/06/30 10:49:08;;;;;;;;;;;24.30;99.90;;;;;;5059631;28;19927;-69
2023/06/30 10:51:36;;;;;;;;;;;24.20;99.90;;;;;;5062934;28;19921;-69
2023/06/30 10:54:03;;;;;;;;;;;24.10;99.90;;;;;;5062985;28;19988;-68
2023/06/30 10:56:30;;;;;;;;;;;24.00;99.90;;;;;;5060506;28;20265;-68
2023/06/30 10:58:58;;;;;;;;;;;23.90;99.90;;;;;;5059858;28;20160;-68
2023/06/30 11:01:27;;;;;;;;;;;23.90;99.90;;;;;;5059678;28;19927;-70
2023/06/30 11:04:13;;;;;;;;;;;23.80;99.90;;;;;;5062708;28;19959;-69
2023/06/30 11:06:40;;;;;;;;;;;23.90;99.90;;;;;;5040266;28;19959;-68
2023/06/30 11:09:09;;;;;;;;;;;23.90;99.90;;;;;;5042963;28;19927;-70
2023/06/30 11:11:47;;;;;;;;;;;24.00;99.90;;;;;;5042885;28;20244;-69
2023/06/30 11:14:14;;;;;;;;;;;24.00;99.90;;;;;;5043267;28;19921;-68
2023/06/30 11:16:56;;;;;;;;;;;24.00;99.90;;;;;;5045561;28;19927;-68
2023/06/30 11:19:26;;;;;;;;;;;24.00;99.90;;;;;;5049935;28;20204;-69
2023/06/30 11:22:08;;;;;;;;;;;24.00;99.90;;;;;;5050149;28;19921;-69
2023/06/30 11:24:38;;;;;;;;;;;24.00;99.90;;;;;;5060877;28;20004;-69
2023/06/30 11:27:05;;;;;;;;;;;23.90;99.90;;;;;;5046288;28;19927;-69
2023/06/30 11:29:32;;;;;;;;;;;23.90;99.90;;;;;;5059470;28;19927;-68
2023/06/30 11:31:58;;;;;;;;;;;23.80;99.90;;;;;;5049220;28;20113;-69
2023/06/30 11:34:32;;;;;;;;;;;23.60;99.90;;;;;;5044041;28;20279;-68
2023/06/30 11:37:04;;;;;;;;;;;23.60;99.90;;;;;;5046016;28;19992;-68
2023/06/30 11:39:31;;;;;;;;;;;23.60;99.90;;;;;;5045183;28;20130;-68
2023/06/30 11:41:58;;;;;;;;;;;23.40;99.90;;;;;;5046476;28;19921;-68
2023/06/30 11:44:24;;;;;;;;;;;23.40;99.90;;;;;;5046534;28;19984;-69
2023/06/30 11:46:51;;;;;;;;;;;23.40;99.90;;;;;;5045611;28;20097;-69
2023/06/30 11:49:19;;;;;;;;;;;23.30;99.90;;;;;;5046159;28;20181;-69
2023/06/30 11:51:48;;;;;;;;;;;23.20;99.90;;;;;;5046630;28;19988;-70
2023/06/30 11:54:15;;;;;;;;;;;23.20;99.90;;;;;;5046247;28;19921;-68
2023/06/30 11:56:41;;;;;;;;;;;23.10;99.90;;;;;;5045321;28;20357;-69
2023/06/30 11:59:08;;;;;;;;;;;23.20;99.90;;;;;;5046409;28;19964;-68
2023/06/30 12:01:35;;;;;;;;;;;23.10;99.90;;;;;;5043323;28;19921;-69
2023/06/30 12:04:17;;;;;;;;;;;23.20;99.90;;;;;;5046464;28;19921;-68
2023/06/30 12:06:44;;;;;;;;;;;23.10;99.90;;;;;;5044301;28;20256;-68
2023/06/30 12:09:12;;;;;;;;;;;23.20;99.90;;;;;;5046147;28;19979;-68
2023/06/30 12:11:41;;;;;;;;;;;23.20;99.90;;;;;;5043150;28;19927;-68
2023/06/30 12:14:08;;;;;;;;;;;23.30;99.90;;;;;;5045812;28;20360;-69
2023/06/30 12:16:38;;;;;;;;;;;23.40;99.90;;;;;;5045241;28;19927;-69
2023/06/30 12:19:06;;;;;;;;;;;23.40;99.90;;;;;;5058700;28;20018;-69
2023/06/30 12:21:33;;;;;;;;;;;23.50;99.90;;;;;;5065577;28;19991;-69
2023/06/30 12:24:00;;;;;;;;;;;23.60;99.90;;;;;;5065303;28;20205;-69
2023/06/30 12:26:29;;;;;;;;;;;23.60;99.90;;;;;;5064266;28;19921;-68
2023/06/30 12:29:02;;;;;;;;;;;23.60;99.90;;;;;;5063586;28;19959;-69
2023/06/30 12:31:31;;;;;;;;;;;23.70;99.90;;;;;;5065671;28;19959;-68
2023/06/30 12:33:58;;;;;;;;;;;23.80;99.90;;;;;;5065370;28;20204;-69
2023/06/30 12:36:28;;;;;;;;;;;23.80;99.90;;;;;;5064492;28;20260;-68
2023/06/30 12:38:56;;;;;;;;;;;23.80;99.90;;;;;;5063090;28;19924;-69
2023/06/30 12:41:23;;;;;;;;;;;23.90;99.90;;;;;;5065262;28;19925;-69
2023/06/30 12:43:51;;;;;;;;;;;23.80;99.90;;;;;;5065221;28;19921;-68
2023/06/30 12:46:18;;;;;;;;;;;23.80;99.90;;;;;;5061686;28;19924;-68
2023/06/30 12:48:45;;;;;;;;;;;23.60;99.90;;;;;;5062018;28;19955;-68
2023/06/30 12:51:11;;;;;;;;;;;23.60;99.90;;;;;;5061847;28;19927;-69
2023/06/30 12:53:38;;;;;;;;;;;23.60;99.90;;;;;;5063755;28;19921;-68
2023/06/30 12:56:05;;;;;;;;;;;23.60;99.90;;;;;;5049427;28;19984;-69
2023/06/30 12:58:32;;;;;;;;;;;23.60;99.90;;;;;;5063438;28;19979;-70
2023/06/30 13:01:00;;;;;;;;;;;23.60;99.90;;;;;;5064890;28;19921;-68
2023/06/30 13:03:28;;;;;;;;;;;23.40;99.90;;;;;;5064881;28;20205;-68
2023/06/30 13:05:54;;;;;;;;;;;23.30;99.90;;;;;;5062425;28;19995;-69
2023/06/30 13:08:21;;;;;;;;;;;23.30;99.90;;;;;;5065135;28;19963;-68
2023/06/30 13:10:49;;;;;;;;;;;23.30;99.90;;;;;;5064014;28;19929;-68
2023/06/30 13:13:17;;;;;;;;;;;23.20;99.90;;;;;;5065083;28;19936;-68
2023/06/30 13:15:43;;;;;;;;;;;23.30;99.90;;;;;;5058574;28;19921;-68
2023/06/30 13:18:11;;;;;;;;;;;23.30;99.90;;;;;;5049968;28;19956;-68
2023/06/30 13:20:38;;;;;;;;;;;23.30;99.90;;;;;;5064621;28;20213;-68
2023/06/30 13:23:05;;;;;;;;;;;23.30;99.90;;;;;;5064649;28;20160;-68
2023/06/30 13:25:31;;;;;;;;;;;23.30;99.90;;;;;;5063625;28;19988;-69
2023/06/30 13:27:58;;;;;;;;;;;23.40;99.90;;;;;;5064554;28;19953;-68
2023/06/30 13:30:24;;;;;;;;;;;23.40;99.90;;;;;;5064661;28;19921;-69
2023/06/30 13:32:51;;;;;;;;;;;23.40;99.90;;;;;;5064375;28;19997;-68
2023/06/30 13:35:19;;;;;;;;;;;23.50;99.90;;;;;;5063905;28;19927;-68
2023/06/30 13:37:46;;;;;;;;;;;23.50;99.90;;;;;;5064522;28;20112;-68
2023/06/30 13:40:13;;;;;;;;;;;23.40;99.90;;;;;;5063508;28;19928;-70
2023/06/30 13:42:40;;;;;;;;;;;23.40;99.90;;;;;;5064198;28;19920;-68
2023/06/30 13:45:07;;;;;;;;;;;23.40;99.90;;;;;;5063922;28;19961;-68
2023/06/30 13:47:34;;;;;;;;;;;23.20;99.90;;;;;;5054204;28;19984;-69
2023/06/30 13:50:01;;;;;;;;;;;23.20;99.90;;;;;;5044345;28;19921;-69
2023/06/30 13:52:29;;;;;;;;;;;23.30;99.90;;;;;;5043754;28;19988;-69
2023/06/30 13:54:56;;;;;;;;;;;23.40;99.90;;;;;;5041282;28;19988;-69
2023/06/30 13:57:23;;;;;;;;;;;23.40;99.90;;;;;;5056568;28;19955;-68
2023/06/30 13:59:49;;;;;;;;;;;23.40;99.90;;;;;;5063183;28;19979;-68
2023/06/30 14:02:16;;;;;;;;;;;23.40;99.90;;;;;;5043901;28;19921;-68
2023/06/30 14:04:43;;;;;;;;;;;23.40;99.90;;;;;;5055452;28;19951;-69
2023/06/30 14:07:09;;;;;;;;;;;23.40;99.90;;;;;;5063143;28;20116;-68
2023/06/30 14:09:37;;;;;;;;;;;23.50;99.90;;;;;;5049615;28;19928;-69
2023/06/30 14:12:05;;;;;;;;;;;23.40;99.90;;;;;;5043951;28;19932;-68
2023/06/30 14:14:31;;;;;;;;;;;23.50;99.90;;;;;;5043853;28;20117;-68
2023/06/30 14:16:58;;;;;;;;;;;23.50;99.90;;;;;;5042664;28;19988;-68
2023/06/30 14:19:25;;;;;;;;;;;23.60;99.90;;;;;;5059122;28;19949;-68